Nearby METAR Reports

 

EGMC - Southend-On-Sea, United Kingdom
Distance from station: NE 10km
Updated: 22/08/2019 22:50
Clear
Clear
 Wind from SW
Wind: SW 8 mph , 13 km/h
Temperature: 17°C
Dew Point: 13°C
Humidity: 77%
Barometer: 1025 hPa
Summary: Clear
Visibility: greater than 7 miles , 10 km
2019/08/22 21:50 EGMC 222150Z 22007KT CAVOK 17/13 Q1025
EGLC - London City Airp, United Kingdom
Distance from station: W 37km
Updated: 22/08/2019 22:50
Clear
Clear
 Wind from SW
Wind: SW 8 mph , 13 km/h
Temperature: 20°C
Dew Point: 14°C
Humidity: 69%
Barometer: 1025 hPa
Clouds: Clear
Visibility: 6 miles , 10 km
2019/08/22 21:50 EGLC 222150Z AUTO 23007KT 9999 NCD 20/14 Q1025
EGKB - Biggin Hill, United Kingdom
Distance from station: WSW 45km
Updated: 22/08/2019 22:20
Clear
Clear
 Wind from SSW
Wind: SSW 8 mph , 13 km/h
Temperature: 15°C
Dew Point: 12°C
Humidity: 82%
Barometer: 1026 hPa
Summary: Clear
Visibility: greater than 7 miles , 10 km
2019/08/22 21:20 EGKB 222120Z 20007KT CAVOK 15/12 Q1026
 
EGSS - Stansted Airport, United Kingdom
Distance from station: NNW 48km
Updated: 22/08/2019 22:50
Clear
Clear
 Wind from SW
Wind: SW 5 mph , 7 km/h
Temperature: 17°C
Dew Point: 13°C
Humidity: 77%
Barometer: 1025 hPa
Clouds: Clear
Visibility: 6 miles , 10 km
2019/08/22 21:50 EGSS 222150Z AUTO 22004KT 9999 NCD 17/13 Q1025
EGKK - London/Gatwick A, United Kingdom
Distance from station: SW 67km
Updated: 22/08/2019 22:50
Clear
Clear
 Wind from varies
Wind: varies 1 mph , 2 km/h
Temperature: 16°C
Dew Point: 12°C
Humidity: 77%
Barometer: 1026 hPa
Summary: Clear
Visibility: greater than 7 miles , 10 km
2019/08/22 21:50 EGKK 222150Z VRB01KT CAVOK 16/12 Q1026
EGMD - Lydd Airport, United Kingdom
Distance from station: SSE 67km
Updated: 22/08/2019 22:50
Clear
Clear
 Wind from WSW
Wind: WSW 6 mph , 9 km/h
Temperature: 16°C
Dew Point: 13°C
Humidity: 83%
Barometer: 1026 hPa
Clouds: Clear
Visibility: 6 miles , 10 km
2019/08/22 21:50 EGMD 222150Z AUTO 25005KT 9999 NCD 16/13 Q1026
 
EGWU - Northolt Raf, United Kingdom
Distance from station: W 69km
Updated: 22/08/2019 21:50
Clear
Clear
 Wind from SSW
Wind: SSW 7 mph , 11 km/h
Temperature: 18°C
Dew Point: 14°C
Humidity: 78%
Barometer: 1025 hPa
Clouds: Clear
Visibility: 6 miles , 10 km
2019/08/22 20:50 EGWU 222050Z AUTO 21006KT 9999 // NCD 18/14 Q1025
EGLL - London/Heathrow, United Kingdom
Distance from station: W 72km
Updated: 22/08/2019 22:50
Clear
Clear
 Wind from WSW
Wind: WSW 10 mph , 17 km/h
Temperature: 18°C
Dew Point: 14°C
Humidity: 78%
Barometer: 1025 hPa
Clouds: Clear
Visibility: 6 miles , 10 km
2019/08/22 21:50 EGLL 222150Z AUTO 24009KT 9999 NCD 18/14 Q1025 NOSIG
EGUW - Wattisham Raf, United Kingdom
Distance from station: NNE 72km
Updated: 22/08/2019 21:50
Clear
Clear
 Wind from SW
Wind: SW 2 mph , 4 km/h
Temperature: 18°C
Dew Point: 13°C
Humidity: 73%
Barometer: 1024 hPa
Clouds: Clear
Visibility: 6 miles , 10 km
2019/08/22 20:50 EGUW 222050Z AUTO 22002KT 9999 NCD 18/13 Q1024
 
EGGW - Luton Airport, United Kingdom
Distance from station: WNW 76km
Updated: 22/08/2019 22:50
Clear
Clear
 Wind from SW
Wind: SW 8 mph , 13 km/h
Temperature: 16°C
Dew Point: 13°C
Humidity: 83%
Barometer: 1025 hPa
Clouds: Clear
Visibility: 6 miles , 10 km
2019/08/22 21:50 EGGW 222150Z AUTO 23007KT 9999 NCD 16/13 Q1025
EGSC - Cambridge, United Kingdom
Distance from station: NNW 81km
Updated: 22/08/2019 17:50
NOT Current
Partly cloudy
Partly cloudy
 Wind from W
Wind: W 15 mph , 24 km/h
Temperature: 22°C
Dew Point: 12°C
Humidity: 53%
Barometer: 1023 hPa
Clouds: Partly cloudy
Visibility: 6 miles , 10 km
Cloud details: Partly cloudy 1341 m
2019/08/22 16:50 EGSC 221650Z 27013KT 9999 SCT044 22/12 Q1023